WCOM7: Spring River, Waco, MO

                                SHEF ID:       WCOM7     Spring R A - Waco MO
STATION TYPE: Stream Gauge
Regulating: Stage = 19.00, Flow = 17743

PRECIP STAGE RIV-FLOW BAT-LOAD
in ft cfs volt
Ccp-Rev Ccp-Rev Ccp-Rev Ccp-Rev
(America/Chicago)
05/03 00:00 0.00 3.28 1089 12.13
05/03 01:00 0.00 3.23 1057 12.11
05/03 02:00 0.00 3.23 1057 12.08
05/03 03:00 0.00 3.21 1044 12.08
05/03 04:00 0.00 3.25 1070 12.07
05/03 05:00 0.00 3.25 1070 12.02
05/03 06:00 0.00 3.17 1018 12.00
05/03 07:00 0.00 3.21 1044 11.98
05/03 08:00 0.00 3.22 1050 12.02
05/03 09:00 0.00 3.16 1012 12.14
05/03 10:00 0.00 3.19 1031 12.31
05/03 11:00 0.00 3.19 1031 13.15
05/03 12:00 0.00 3.17 1018 12.96
05/03 13:00 0.00 3.14 1000 12.90
05/03 14:00 0.00 3.18 1025 12.84
05/03 15:00 0.00 3.15 1006 12.69
05/03 16:00 0.00 3.16 1012 12.54
05/03 17:00 0.00 3.13 993 12.53
05/03 18:00 0.00 3.15 1006 12.46
05/03 19:00 0.00 3.13 993 12.42
05/03 20:00 0.00 3.09 968 12.34
05/03 21:00 0.00 3.05 944 12.19
05/03 22:00 0.00 3.04 938 12.14
05/03 23:00 0.00 3.10 975 12.13
Data processed at Mon 04May2026 04:37 GMT

NOTICE: If you are parsing this page

Please convert to using our Data API. Starting early 2026 we will be migrating to: https://water.usace.army.mil with modern pages rendered in JavaScript. When this migration completes you will no longer be able to scrape this page! CWMSDataAPI (CDA)

Timeseries IDs (TSIDs)

TSIDs used from left to right in the data table
WACO.Precip-Inc.Total.1Hour.1Hour.Ccp-Rev
WACO.Stage.Inst.1Hour.0.Ccp-Rev
WACO.Flow.Inst.1Hour.0.Ccp-Rev
WACO.Volt-Battery Load.Inst.1Hour.0.Ccp-Rev

                            

All information presented herein is the property of the government of the United States of America and may be revised or deleted at any time without prior notice. Dissemination of this information without the expressed written consent of the Public Affairs Office, Tulsa District U.S. Army Corps of Engineers is strictly prohibited. These data are gathered electronically and, as presented, have NOT undergone any form of quality control. These data are NOT guaranteed to be valid or correct.